Terminal Aerodrome Forecast
Issued by NWS

Home | Current Version | Previous Version | Text Only | Print | Product List | Glossary On
Versions: 1 2 3 4 5 6 7 8 9 10 11 12 13 14 15 16
000
FTUS46 KHNX 202338
TAFBFL
TAF
KBFL 202338Z 2100/2124 30008KT P6SM SKC
     FM210400 32012G18KT P6SM FEW150
     FM212100 33008KT P6SM BKN100=

USA.gov is the U.S. government's official web portal to all federal, state and local government web resources and services.